Time;durP1;ratioP1;P1;durP2;ratioP2;P2;SDS_P1;SDS_P2;PMS_P1;PMS_P2;Temp;Humidity;BMP_temperature;BMP_pressure;BME280_temperature;BME280_humidity;BME280_pressure;Samples;Min_cycle;Max_cycle;Signal;HPM_P1;HPM_P2
2022/09/28 00:00:58;;;;;;;1.53;1.10;;;9.80;98.20;;;;;;4978674;28;20496;-79
2022/09/28 00:03:26;;;;;;;1.57;1.20;;;9.80;98.20;;;;;;4988746;28;20527;-78
2022/09/28 00:05:53;;;;;;;1.53;1.10;;;9.70;98.20;;;;;;4981156;28;20507;-78
2022/09/28 00:08:20;;;;;;;1.53;1.10;;;9.70;98.20;;;;;;5000818;28;20460;-79
2022/09/28 00:10:55;;;;;;;1.50;1.10;;;9.70;98.20;;;;;;4988719;28;20515;-78
2022/09/28 00:13:23;;;;;;;1.50;1.20;;;9.70;98.20;;;;;;4987158;28;20488;-78
2022/09/28 00:16:01;;;;;;;1.53;1.20;;;9.70;98.20;;;;;;4979572;28;20473;-79
2022/09/28 00:18:28;;;;;;;1.60;1.30;;;9.70;98.20;;;;;;4988717;28;20500;-78
2022/09/28 00:21:02;;;;;;;1.53;1.20;;;9.70;98.20;;;;;;4979949;28;20588;-78
2022/09/28 00:23:29;;;;;;;1.60;1.30;;;9.70;98.20;;;;;;4980334;28;20851;-80
2022/09/28 00:25:56;;;;;;;1.57;1.20;;;9.70;98.20;;;;;;4971087;28;20465;-78
2022/09/28 00:28:22;;;;;;;1.57;1.20;;;9.70;98.20;;;;;;4989795;28;20902;-79
2022/09/28 00:30:55;;;;;;;1.53;1.20;;;9.70;98.20;;;;;;4973546;28;20482;-78
2022/09/28 00:33:24;;;;;;;1.60;1.30;;;9.70;98.20;;;;;;4983394;28;20527;-79
2022/09/28 00:35:56;;;;;;;1.60;1.30;;;9.70;98.20;;;;;;4978810;28;20468;-79
2022/09/28 00:38:27;;;;;;;1.50;1.10;;;9.70;98.20;;;;;;5002192;28;20511;-79
2022/09/28 00:40:54;;;;;;;1.53;1.20;;;9.70;98.20;;;;;;4981705;28;20485;-78
2022/09/28 00:43:22;;;;;;;1.50;1.10;;;9.70;98.20;;;;;;4983961;28;20961;-78
2022/09/28 00:45:53;;;;;;;1.53;1.20;;;9.70;98.20;;;;;;4979706;28;20687;-79
2022/09/28 00:48:20;;;;;;;1.57;1.10;;;9.60;98.20;;;;;;4985298;28;20465;-79
2022/09/28 00:50:49;;;;;;;1.50;1.20;;;9.60;98.20;;;;;;4988328;28;20527;-78
2022/09/28 00:53:21;;;;;;;1.53;1.20;;;9.70;98.20;;;;;;4984968;28;20504;-78
2022/09/28 00:55:50;;;;;;;1.60;1.20;;;9.60;98.20;;;;;;4983551;28;20505;-78
2022/09/28 00:58:21;;;;;;;1.57;1.10;;;9.60;98.20;;;;;;4990424;28;20909;-79
2022/09/28 01:00:48;;;;;;;1.53;1.20;;;9.60;98.20;;;;;;4989656;28;20489;-78
2022/09/28 01:03:16;;;;;;;1.53;1.20;;;9.70;98.20;;;;;;4985119;28;20531;-78
2022/09/28 01:05:45;;;;;;;1.53;1.20;;;9.70;98.20;;;;;;4989641;28;20473;-78
2022/09/28 01:08:14;;;;;;;1.57;1.20;;;9.70;98.20;;;;;;4964372;28;20476;-78
2022/09/28 01:10:42;;;;;;;1.60;1.20;;;9.70;98.20;;;;;;5007207;28;21072;-78
2022/09/28 01:13:10;;;;;;;1.60;1.20;;;9.70;98.20;;;;;;4974421;28;20477;-79
2022/09/28 01:15:47;;;;;;;1.53;1.20;;;9.60;98.20;;;;;;4974766;28;20552;-78
2022/09/28 01:18:22;;;;;;;1.60;1.20;;;9.60;98.20;;;;;;4970988;28;20480;-78
2022/09/28 01:21:01;;;;;;;1.53;1.17;;;9.60;98.20;;;;;;4989353;28;20480;-78
2022/09/28 01:24:00;;;;;;;1.50;1.10;;;9.60;98.20;;;;;;4985075;28;20555;-80
2022/09/28 01:27:01;;;;;;;1.53;1.20;;;9.60;98.20;;;;;;4980704;28;20483;-78
2022/09/28 01:29:39;;;;;;;1.53;1.20;;;9.60;98.20;;;;;;4988610;28;20901;-78
2022/09/28 01:32:22;;;;;;;1.60;1.20;;;9.60;98.20;;;;;;4974314;28;20568;-78
2022/09/28 01:35:05;;;;;;;1.50;1.20;;;9.60;98.20;;;;;;4985959;28;20468;-78
2022/09/28 01:37:40;;;;;;;1.57;1.20;;;9.60;98.20;;;;;;4988816;28;21164;-78
2022/09/28 01:40:10;;;;;;;1.50;1.20;;;9.60;98.20;;;;;;4994559;28;21061;-78
2022/09/28 01:42:41;;;;;;;1.53;1.20;;;9.60;98.20;;;;;;4979426;28;20557;-78
2022/09/28 01:45:13;;;;;;;1.60;1.20;;;9.60;98.20;;;;;;4990744;28;20468;-78
2022/09/28 01:47:41;;;;;;;1.50;1.20;;;9.50;98.20;;;;;;4979674;28;20575;-78
2022/09/28 01:50:13;;;;;;;1.57;1.20;;;9.50;98.20;;;;;;4991429;28;20952;-78
2022/09/28 01:52:45;;;;;;;1.53;1.10;;;9.50;98.20;;;;;;4978624;28;20485;-79
2022/09/28 01:55:19;;;;;;;1.57;1.20;;;9.50;98.20;;;;;;4990844;28;20846;-78
2022/09/28 01:57:50;;;;;;;1.53;1.20;;;9.50;98.20;;;;;;4975295;28;20491;-78
2022/09/28 02:00:19;;;;;;;1.50;1.20;;;9.40;98.20;;;;;;4992034;28;21000;-78
2022/09/28 02:02:54;;;;;;;1.53;1.10;;;9.50;98.20;;;;;;4980498;28;20838;-78
2022/09/28 02:05:26;;;;;;;1.53;1.20;;;9.50;98.20;;;;;;4991277;28;20559;-78
2022/09/28 02:07:59;;;;;;;1.50;1.20;;;9.50;98.20;;;;;;4993005;28;21174;-78
2022/09/28 02:10:31;;;;;;;1.50;1.20;;;9.40;98.20;;;;;;4990333;28;20499;-78
2022/09/28 02:13:05;;;;;;;1.50;1.20;;;9.40;98.20;;;;;;4974071;28;21250;-78
2022/09/28 02:15:40;;;;;;;1.50;1.10;;;9.40;98.20;;;;;;4990275;28;20468;-78
2022/09/28 02:18:08;;;;;;;1.57;1.20;;;9.50;98.20;;;;;;4977786;28;20485;-78
2022/09/28 02:20:38;;;;;;;1.50;1.20;;;9.50;98.20;;;;;;4990405;28;20489;-78
2022/09/28 02:23:07;;;;;;;1.50;1.10;;;9.50;98.20;;;;;;4977806;28;20568;-78
2022/09/28 02:25:40;;;;;;;1.57;1.20;;;9.50;98.20;;;;;;4982410;28;20843;-78
2022/09/28 02:28:10;;;;;;;1.50;1.20;;;9.60;98.20;;;;;;4978924;28;20493;-78
2022/09/28 02:30:40;;;;;;;1.53;1.20;;;9.60;98.20;;;;;;4988175;28;20581;-78
2022/09/28 02:33:13;;;;;;;1.50;1.10;;;9.60;98.20;;;;;;4978810;28;20507;-78
2022/09/28 02:35:42;;;;;;;1.53;1.20;;;9.70;98.20;;;;;;4988801;28;20489;-78
2022/09/28 02:38:11;;;;;;;1.50;1.20;;;9.70;98.20;;;;;;4987444;28;20555;-78
2022/09/28 02:40:39;;;;;;;1.50;1.20;;;9.70;98.20;;;;;;4993680;28;21016;-78
2022/09/28 02:43:19;;;;;;;1.57;1.10;;;9.70;98.20;;;;;;4978434;28;20520;-78
2022/09/28 02:45:57;;;;;;;1.60;1.20;;;9.70;98.20;;;;;;4989373;28;20501;-78
2022/09/28 02:48:40;;;;;;;1.53;1.20;;;9.70;98.20;;;;;;4962914;28;20579;-78
2022/09/28 02:51:19;;;;;;;1.50;1.10;;;9.70;98.20;;;;;;4979255;28;20556;-79
2022/09/28 02:54:10;;;;;;;1.53;1.10;;;9.60;98.20;;;;;;4989390;28;20492;-78
2022/09/28 02:56:56;;;;;;;1.53;1.10;;;9.60;98.20;;;;;;4978467;28;20496;-78
2022/09/28 02:59:47;;;;;;;1.57;1.10;;;9.60;98.20;;;;;;4984550;28;20550;-78
2022/09/28 03:02:23;;;;;;;1.50;1.20;;;9.60;98.20;;;;;;4978980;28;20830;-78
2022/09/28 03:05:11;;;;;;;1.53;1.20;;;9.60;98.20;;;;;;4989385;28;20475;-79
2022/09/28 03:07:44;;;;;;;1.57;1.20;;;9.70;98.20;;;;;;4989065;28;20496;-78
2022/09/28 03:10:16;;;;;;;1.53;1.20;;;9.60;98.20;;;;;;4994270;28;20477;-78
2022/09/28 03:12:46;;;;;;;1.50;1.10;;;9.60;98.20;;;;;;4977388;28;20481;-78
2022/09/28 03:15:20;;;;;;;1.57;1.20;;;9.60;98.20;;;;;;4988135;28;20461;-78
2022/09/28 03:17:47;;;;;;;1.50;1.10;;;9.60;98.20;;;;;;4971521;28;20500;-78
2022/09/28 03:20:15;;;;;;;1.57;1.10;;;9.60;98.20;;;;;;4989511;28;20492;-78
2022/09/28 03:22:42;;;;;;;1.60;1.20;;;9.70;98.20;;;;;;4977321;28;20496;-78
2022/09/28 03:25:09;;;;;;;1.50;1.20;;;9.70;98.20;;;;;;4987394;28;20548;-78
2022/09/28 03:27:37;;;;;;;1.50;1.10;;;9.70;98.20;;;;;;4977154;28;20503;-78
2022/09/28 03:30:05;;;;;;;1.53;1.20;;;9.70;98.20;;;;;;4989075;28;20579;-77
2022/09/28 03:32:33;;;;;;;1.53;1.20;;;9.70;98.20;;;;;;4976056;28;20520;-78
2022/09/28 03:35:00;;;;;;;1.50;1.10;;;9.70;98.20;;;;;;4989049;28;20475;-78
2022/09/28 03:37:28;;;;;;;1.53;1.20;;;9.70;98.20;;;;;;4981588;28;20706;-77
2022/09/28 03:39:54;;;;;;;1.50;1.10;;;9.70;98.20;;;;;;4996817;28;20497;-77
2022/09/28 03:42:21;;;;;;;1.60;1.20;;;9.70;98.20;;;;;;4971016;28;20520;-78
2022/09/28 03:44:48;;;;;;;1.53;1.20;;;9.70;98.20;;;;;;4989187;28;20818;-78
2022/09/28 03:47:16;;;;;;;1.53;1.10;;;9.70;98.20;;;;;;4977325;28;20485;-77
2022/09/28 03:49:45;;;;;;;1.53;1.10;;;9.70;98.20;;;;;;4988617;28;20481;-77
2022/09/28 03:52:14;;;;;;;1.53;1.20;;;9.70;98.20;;;;;;4977393;28;20486;-77
2022/09/28 03:54:41;;;;;;;1.53;1.20;;;9.70;98.20;;;;;;4988535;28;21047;-77
2022/09/28 03:57:08;;;;;;;1.50;1.13;;;9.70;98.20;;;;;;4977224;28;20496;-77
2022/09/28 03:59:36;;;;;;;1.53;1.10;;;9.70;98.20;;;;;;4980827;28;20489;-78
2022/09/28 04:02:04;;;;;;;1.50;1.17;;;9.70;98.20;;;;;;4974007;28;20481;-78
2022/09/28 04:04:31;;;;;;;2.17;1.97;;;9.70;98.20;;;;;;4985335;28;20487;-77
2022/09/28 04:06:59;;;;;;;1.53;1.20;;;9.70;98.20;;;;;;4979704;28;20504;-77
2022/09/28 04:09:26;;;;;;;1.57;1.20;;;9.70;98.20;;;;;;4990498;28;20548;-77
2022/09/28 04:11:53;;;;;;;1.50;1.20;;;9.70;98.20;;;;;;4977642;28;20917;-77
2022/09/28 04:14:20;;;;;;;1.53;1.20;;;9.70;98.20;;;;;;4989289;28;20508;-79
2022/09/28 04:16:47;;;;;;;1.50;1.13;;;9.70;98.20;;;;;;4978246;28;20496;-78
2022/09/28 04:19:14;;;;;;;1.57;1.20;;;9.70;98.20;;;;;;4989205;28;20520;-78
2022/09/28 04:21:41;;;;;;;1.53;1.10;;;9.70;98.20;;;;;;4977107;28;20480;-78
2022/09/28 04:24:11;;;;;;;1.50;1.20;;;9.70;98.20;;;;;;4986800;28;20476;-78
2022/09/28 04:26:39;;;;;;;1.50;1.10;;;9.70;98.20;;;;;;4977729;28;20572;-78
2022/09/28 04:29:17;;;;;;;1.53;1.20;;;9.80;98.20;;;;;;4991814;28;20460;-78
2022/09/28 04:31:47;;;;;;;1.53;1.20;;;9.80;98.20;;;;;;4975312;28;20476;-77
2022/09/28 04:34:16;;;;;;;1.60;1.10;;;9.80;98.20;;;;;;4991586;28;20552;-77
2022/09/28 04:36:44;;;;;;;1.50;1.10;;;9.80;98.20;;;;;;4978336;28;20484;-78
2022/09/28 04:39:14;;;;;;;1.50;1.10;;;9.90;98.20;;;;;;4996151;28;20499;-79
2022/09/28 04:41:42;;;;;;;1.57;1.10;;;9.90;98.20;;;;;;4981333;28;21024;-77
2022/09/28 04:44:09;;;;;;;1.60;1.20;;;9.90;98.20;;;;;;4988821;28;20576;-79
2022/09/28 04:46:36;;;;;;;1.53;1.20;;;9.90;98.20;;;;;;4980915;28;20489;-78
2022/09/28 04:49:03;;;;;;;1.53;1.20;;;9.80;98.20;;;;;;4991688;28;20551;-78
2022/09/28 04:51:31;;;;;;;1.60;1.20;;;9.80;98.20;;;;;;4981177;28;20483;-78
2022/09/28 04:53:58;;;;;;;1.53;1.10;;;9.80;98.20;;;;;;4991106;28;20915;-78
2022/09/28 04:56:26;;;;;;;1.50;1.10;;;9.80;98.20;;;;;;4980758;28;20477;-79
2022/09/28 04:58:53;;;;;;;1.50;1.20;;;9.80;98.20;;;;;;4992104;28;21037;-78
2022/09/28 05:01:22;;;;;;;1.57;1.10;;;9.70;98.20;;;;;;4983054;28;20953;-78
2022/09/28 05:03:49;;;;;;;1.50;1.10;;;9.70;98.20;;;;;;4990071;28;20902;-78
2022/09/28 05:06:17;;;;;;;1.57;1.20;;;9.60;98.20;;;;;;4978816;28;21039;-78
2022/09/28 05:08:46;;;;;;;1.57;1.20;;;9.60;98.20;;;;;;4998681;28;20465;-78
2022/09/28 05:11:14;;;;;;;1.50;1.10;;;9.60;98.20;;;;;;4981581;28;20628;-78
2022/09/28 05:13:45;;;;;;;1.60;1.40;;;9.60;98.20;;;;;;4990801;28;20504;-78
2022/09/28 05:16:14;;;;;;;1.57;1.20;;;9.60;98.20;;;;;;4981261;28;20481;-78
2022/09/28 05:18:41;;;;;;;1.57;1.20;;;9.60;98.20;;;;;;4991672;28;20973;-78
2022/09/28 05:21:12;;;;;;;1.53;1.10;;;9.60;98.20;;;;;;4983849;28;20621;-78
2022/09/28 05:23:40;;;;;;;1.53;1.17;;;9.60;98.20;;;;;;4993342;28;20461;-78
2022/09/28 05:26:07;;;;;;;1.60;1.30;;;9.60;98.20;;;;;;4981282;28;21146;-77
2022/09/28 05:28:34;;;;;;;1.50;1.10;;;9.60;98.20;;;;;;4990895;28;20544;-77
2022/09/28 05:31:05;;;;;;;1.50;1.10;;;9.50;98.20;;;;;;4980634;28;20480;-77
2022/09/28 05:33:33;;;;;;;1.60;1.20;;;9.60;98.20;;;;;;4991323;28;20523;-77
2022/09/28 05:36:01;;;;;;;1.53;1.20;;;9.60;98.20;;;;;;4980754;28;20989;-76
2022/09/28 05:38:28;;;;;;;1.50;1.20;;;9.50;98.20;;;;;;4994569;28;21239;-77
2022/09/28 05:40:56;;;;;;;1.57;1.10;;;9.60;98.20;;;;;;4981514;28;20493;-77
2022/09/28 05:43:23;;;;;;;1.57;1.10;;;9.60;98.20;;;;;;4989451;28;20507;-77
2022/09/28 05:45:50;;;;;;;1.60;1.30;;;9.60;98.20;;;;;;4980189;28;21069;-77
2022/09/28 05:48:19;;;;;;;1.53;1.13;;;9.60;98.20;;;;;;4991252;28;20457;-78
2022/09/28 05:50:50;;;;;;;1.53;1.20;;;9.60;98.20;;;;;;4990759;28;20520;-78
2022/09/28 05:53:17;;;;;;;1.53;1.20;;;9.60;98.20;;;;;;4963559;28;20504;-78
2022/09/28 05:55:45;;;;;;;1.60;1.30;;;9.60;98.20;;;;;;4988558;28;20469;-77
2022/09/28 05:58:12;;;;;;;1.57;1.20;;;9.60;98.20;;;;;;4980082;28;20527;-78
2022/09/28 06:00:39;;;;;;;1.50;1.20;;;9.60;98.20;;;;;;4990755;28;20997;-78
2022/09/28 06:03:08;;;;;;;1.53;1.10;;;9.60;98.20;;;;;;4978577;28;20492;-77
2022/09/28 06:05:38;;;;;;;1.53;1.20;;;9.60;98.20;;;;;;4989772;28;20914;-78
2022/09/28 06:08:07;;;;;;;1.50;1.20;;;9.60;98.20;;;;;;4984168;28;20485;-78
2022/09/28 06:10:35;;;;;;;1.50;1.10;;;9.60;98.20;;;;;;4993320;28;20543;-79
2022/09/28 06:13:03;;;;;;;1.50;1.10;;;9.60;98.20;;;;;;4982085;28;20489;-79
2022/09/28 06:15:32;;;;;;;1.57;1.20;;;9.70;98.20;;;;;;4994651;28;20469;-79
2022/09/28 06:18:01;;;;;;;1.50;1.10;;;9.70;98.20;;;;;;4981599;28;20493;-79
2022/09/28 06:20:31;;;;;;;1.60;1.30;;;9.70;98.20;;;;;;4988678;28;20497;-78
2022/09/28 06:23:00;;;;;;;1.50;1.10;;;9.70;98.20;;;;;;4978035;28;20476;-79
2022/09/28 06:25:28;;;;;;;1.50;1.10;;;9.80;98.20;;;;;;4990012;28;20551;-79
2022/09/28 06:27:57;;;;;;;1.53;1.10;;;9.80;98.20;;;;;;4980968;28;20563;-80
2022/09/28 06:30:25;;;;;;;1.50;1.10;;;9.80;98.20;;;;;;4994592;28;20489;-80
2022/09/28 06:32:55;;;;;;;1.57;1.20;;;9.80;98.20;;;;;;4984775;28;20481;-80
2022/09/28 06:35:24;;;;;;;1.57;1.20;;;9.80;98.20;;;;;;4998368;28;20540;-84
2022/09/28 06:37:52;;;;;;;1.53;1.10;;;9.80;98.20;;;;;;4989879;28;20491;-80
2022/09/28 06:40:21;;;;;;;1.50;1.10;;;9.80;98.20;;;;;;4995142;28;20524;-80
2022/09/28 06:42:56;;;;;;;1.57;1.17;;;9.80;98.20;;;;;;4981173;28;20488;-80
2022/09/28 06:45:24;;;;;;;1.57;1.13;;;9.90;98.20;;;;;;4991314;28;20874;-78
2022/09/28 06:47:57;;;;;;;1.53;1.10;;;9.90;98.20;;;;;;4976782;28;20484;-77
2022/09/28 06:50:25;;;;;;;1.57;1.20;;;9.90;98.20;;;;;;4990945;28;20485;-80
2022/09/28 06:52:53;;;;;;;1.50;1.10;;;9.90;98.20;;;;;;4978490;28;20511;-82
2022/09/28 06:55:22;;;;;;;1.50;1.10;;;9.90;98.20;;;;;;4993664;28;20758;-79
2022/09/28 06:57:58;;;;;;;1.60;1.20;;;10.00;98.20;;;;;;4981472;28;20552;-79
2022/09/28 07:00:26;;;;;;;1.50;1.10;;;10.00;98.20;;;;;;4993293;28;20497;-80
2022/09/28 07:02:54;;;;;;;1.57;1.10;;;10.00;98.20;;;;;;4978928;28;20571;-78
2022/09/28 07:05:26;;;;;;;1.50;1.10;;;10.10;98.20;;;;;;4988404;28;20900;-78
2022/09/28 07:07:55;;;;;;;1.57;1.10;;;10.10;98.20;;;;;;4980367;28;20485;-79
2022/09/28 07:10:26;;;;;;;1.53;1.10;;;10.10;98.20;;;;;;4994724;28;20492;-79
2022/09/28 07:12:54;;;;;;;1.50;1.10;;;10.10;98.20;;;;;;4984757;28;20963;-79
2022/09/28 07:15:22;;;;;;;1.50;1.20;;;10.10;98.20;;;;;;4995448;28;20497;-78
2022/09/28 07:17:49;;;;;;;1.50;1.10;;;10.20;98.20;;;;;;4976471;28;20493;-78
2022/09/28 07:20:17;;;;;;;1.50;1.20;;;10.20;98.20;;;;;;4989463;28;20872;-78
2022/09/28 07:22:46;;;;;;;1.57;1.10;;;10.30;98.20;;;;;;4977321;28;20526;-78
2022/09/28 07:25:14;;;;;;;1.60;1.20;;;10.30;98.20;;;;;;4990665;28;20648;-78
2022/09/28 07:27:42;;;;;;;1.57;1.10;;;10.40;98.20;;;;;;4976938;28;20571;-78
2022/09/28 07:30:11;;;;;;;1.53;1.10;;;10.50;98.20;;;;;;4987665;28;20499;-78
2022/09/28 07:32:39;;;;;;;1.57;1.10;;;10.50;98.20;;;;;;4975756;28;21014;-79
2022/09/28 07:35:07;;;;;;;1.53;1.10;;;10.60;98.20;;;;;;4987944;28;20504;-79
2022/09/28 07:37:35;;;;;;;1.53;1.10;;;10.70;98.20;;;;;;4978806;28;20492;-78
2022/09/28 07:42:50;;;;;;;1.50;1.00;;;10.70;98.20;;;;;;4976656;28;21056;-78
2022/09/28 07:45:19;;;;;;;1.60;1.20;;;10.80;98.20;;;;;;4987675;28;20464;-78
2022/09/28 07:47:46;;;;;;;1.53;1.20;;;10.80;98.20;;;;;;4975254;28;20503;-79
2022/09/28 07:50:14;;;;;;;1.53;1.10;;;11.00;98.20;;;;;;4985986;28;21170;-78
2022/09/28 07:52:43;;;;;;;3.30;3.10;;;11.00;98.20;;;;;;4979081;28;20856;-79
2022/09/28 07:55:10;;;;;;;1.50;1.03;;;11.00;98.20;;;;;;4992569;28;20464;-79
2022/09/28 07:57:38;;;;;;;1.53;1.10;;;11.10;98.20;;;;;;4978204;28;20489;-77
2022/09/28 08:00:09;;;;;;;1.53;1.10;;;11.20;98.20;;;;;;4987921;28;20496;-79
2022/09/28 08:02:37;;;;;;;1.60;1.20;;;11.30;98.20;;;;;;4974119;28;20547;-79
2022/09/28 08:05:08;;;;;;;1.60;1.20;;;11.40;98.20;;;;;;4989355;28;20898;-79
2022/09/28 08:07:37;;;;;;;1.60;1.10;;;11.50;98.20;;;;;;4975318;28;20888;-79
2022/09/28 08:10:05;;;;;;;1.60;1.20;;;11.60;98.20;;;;;;4991199;28;20480;-79
2022/09/28 08:12:33;;;;;;;1.57;1.10;;;11.70;98.20;;;;;;4971663;28;20724;-79
2022/09/28 08:15:00;;;;;;;1.60;1.20;;;11.80;98.20;;;;;;4987929;28;20468;-79
2022/09/28 08:17:29;;;;;;;1.53;1.00;;;11.90;98.20;;;;;;4978145;28;20512;-79
2022/09/28 08:22:43;;;;;;;1.57;1.00;;;12.00;98.20;;;;;;4977271;28;20568;-79
2022/09/28 08:25:10;;;;;;;1.50;1.00;;;12.10;98.20;;;;;;4994313;28;20464;-78
2022/09/28 08:27:38;;;;;;;1.50;1.00;;;12.10;98.20;;;;;;4978621;28;20488;-79
2022/09/28 08:30:07;;;;;;;1.50;1.00;;;12.10;98.20;;;;;;4988528;28;20520;-78
2022/09/28 08:32:36;;;;;;;1.53;1.10;;;12.20;98.20;;;;;;4981556;28;20488;-79
2022/09/28 08:35:05;;;;;;;1.50;1.00;;;12.20;98.20;;;;;;4991229;28;20755;-79
2022/09/28 08:37:33;;;;;;;1.50;1.00;;;12.20;98.20;;;;;;4981311;28;20622;-79
2022/09/28 08:40:01;;;;;;;1.57;1.10;;;12.20;98.20;;;;;;4991932;28;20523;-78
2022/09/28 08:42:33;;;;;;;1.50;1.00;;;12.20;98.20;;;;;;4974418;28;20491;-78
2022/09/28 08:45:09;;;;;;;1.50;1.00;;;12.20;98.20;;;;;;4988418;28;20812;-78
2022/09/28 08:50:36;;;;;;;1.53;1.03;;;12.30;98.20;;;;;;4989132;28;20483;-79
2022/09/28 08:53:13;;;;;;;1.53;1.00;;;12.40;98.20;;;;;;4975144;28;20513;-79
2022/09/28 08:55:44;;;;;;;1.50;1.00;;;12.40;98.20;;;;;;4987757;28;20507;-78
2022/09/28 08:58:14;;;;;;;1.60;1.00;;;12.60;98.20;;;;;;4976545;28;20489;-78
2022/09/28 09:00:47;;;;;;;1.53;1.00;;;12.60;98.20;;;;;;4988010;28;20934;-78
2022/09/28 09:03:19;;;;;;;1.57;1.00;;;12.60;98.20;;;;;;4955179;28;20484;-78
2022/09/28 09:06:03;;;;;;;1.50;1.00;;;12.60;98.20;;;;;;4988435;28;20464;-79
2022/09/28 09:08:41;;;;;;;1.53;1.00;;;12.60;98.20;;;;;;4970485;28;20506;-79
2022/09/28 09:11:22;;;;;;;1.53;1.00;;;12.60;98.20;;;;;;4977429;28;20483;-79
2022/09/28 09:14:13;;;;;;;1.50;1.00;;;12.60;98.20;;;;;;4987197;28;20468;-79
2022/09/28 09:16:54;;;;;;;1.50;1.00;;;12.60;98.20;;;;;;4977038;28;20491;-79
2022/09/28 09:19:35;;;;;;;1.50;1.00;;;12.60;98.20;;;;;;4984386;28;20555;-79
2022/09/28 09:22:15;;;;;;;1.50;1.00;;;12.60;98.20;;;;;;4980307;28;21070;-79
2022/09/28 09:24:49;;;;;;;1.50;1.00;;;12.70;98.20;;;;;;4992009;28;20534;-79
2022/09/28 09:27:31;;;;;;;1.50;1.00;;;12.70;98.20;;;;;;4979744;28;20531;-79
2022/09/28 09:30:06;;;;;;;1.50;1.00;;;12.90;98.20;;;;;;4990988;28;20480;-78
2022/09/28 09:32:59;;;;;;;1.53;1.00;;;13.00;98.20;;;;;;4975033;28;20865;-78
2022/09/28 09:35:44;;;;;;;1.50;1.00;;;13.00;98.20;;;;;;4991571;28;20856;-79
2022/09/28 09:38:29;;;;;;;1.50;1.00;;;13.00;98.20;;;;;;4993068;28;20476;-79
2022/09/28 09:41:09;;;;;;;1.50;1.00;;;13.00;98.20;;;;;;4984082;28;20500;-79
2022/09/28 09:44:12;;;;;;;1.50;1.07;;;13.00;98.20;;;;;;4990481;28;20471;-78
2022/09/28 09:46:46;;;;;;;1.50;1.00;;;13.00;98.20;;;;;;4974716;28;20480;-78
2022/09/28 09:49:19;;;;;;;1.60;1.10;;;13.10;98.20;;;;;;4991712;28;20559;-78
2022/09/28 09:51:53;;;;;;;1.60;1.00;;;13.20;98.20;;;;;;4979774;28;20496;-78
2022/09/28 09:54:27;;;;;;;1.53;1.00;;;13.30;98.20;;;;;;4990914;28;20690;-78
2022/09/28 09:56:59;;;;;;;1.57;1.00;;;13.50;98.20;;;;;;4971933;28;20576;-78
2022/09/28 09:59:32;;;;;;;1.60;1.00;;;13.70;98.20;;;;;;4992195;28;20473;-77
2022/09/28 10:02:03;;;;;;;1.57;1.00;;;13.90;98.20;;;;;;4979113;28;20516;-78
2022/09/28 10:04:36;;;;;;;1.60;1.10;;;14.10;98.20;;;;;;4991541;28;21021;-78
2022/09/28 10:07:09;;;;;;;1.60;1.00;;;14.30;98.20;;;;;;4987944;28;20899;-78
2022/09/28 10:09:40;;;;;;;1.53;1.00;;;14.50;98.20;;;;;;5000061;28;20555;-79
2022/09/28 10:12:10;;;;;;;1.50;1.00;;;14.50;98.20;;;;;;4973368;28;20501;-78
2022/09/28 10:14:37;;;;;;;1.53;1.00;;;14.40;98.20;;;;;;4990731;28;20974;-77
2022/09/28 10:17:05;;;;;;;1.50;1.00;;;14.30;98.20;;;;;;4976577;28;20640;-78
2022/09/28 10:19:34;;;;;;;1.53;1.00;;;14.20;98.20;;;;;;4990511;28;20476;-78
2022/09/28 10:22:06;;;;;;;1.50;1.00;;;14.30;98.20;;;;;;4979336;28;20575;-77
2022/09/28 10:24:39;;;;;;;1.53;1.00;;;14.50;98.20;;;;;;4991426;28;20604;-78
2022/09/28 10:27:08;;;;;;;1.53;1.00;;;14.60;98.20;;;;;;4978858;28;20580;-77
2022/09/28 10:29:44;;;;;;;1.53;1.00;;;14.80;98.20;;;;;;4991334;28;20819;-78
2022/09/28 10:32:24;;;;;;;1.53;0.90;;;14.80;98.20;;;;;;4972628;28;20484;-78
2022/09/28 10:34:53;;;;;;;1.50;0.90;;;14.90;98.20;;;;;;4990484;28;20491;-77
2022/09/28 10:37:23;;;;;;;1.50;0.90;;;14.90;98.20;;;;;;4983874;28;20484;-77
2022/09/28 10:39:53;;;;;;;1.50;1.00;;;14.90;98.20;;;;;;4996426;28;20513;-78
2022/09/28 10:42:25;;;;;;;1.50;0.90;;;14.90;98.20;;;;;;4979787;28;20905;-79
2022/09/28 10:45:00;;;;;;;1.57;1.00;;;14.90;98.20;;;;;;4992940;28;20519;-77
2022/09/28 10:47:30;;;;;;;1.53;1.00;;;15.00;98.20;;;;;;4981542;28;20578;-78
2022/09/28 10:49:58;;;;;;;1.57;1.00;;;15.00;98.20;;;;;;4991978;28;20531;-78
2022/09/28 10:52:40;;;;;;;1.50;0.90;;;15.00;98.20;;;;;;4979596;28;20491;-78
2022/09/28 10:55:26;;;;;;;1.53;1.00;;;15.00;98.20;;;;;;4985674;28;20486;-78
2022/09/28 10:57:55;;;;;;;1.53;1.00;;;14.90;98.20;;;;;;4993263;28;20491;-78
2022/09/28 11:00:37;;;;;;;1.53;1.00;;;14.90;98.20;;;;;;4994012;28;20469;-78
2022/09/28 11:03:05;;;;;;;1.50;0.90;;;14.90;98.20;;;;;;4983866;28;20511;-78
2022/09/28 11:05:33;;;;;;;1.50;0.90;;;14.90;98.20;;;;;;4992526;28;20599;-79
2022/09/28 11:08:07;;;;;;;1.53;1.00;;;14.90;98.20;;;;;;4979111;28;20472;-78
2022/09/28 11:10:34;;;;;;;1.50;0.90;;;14.80;98.20;;;;;;4996113;28;20480;-77
2022/09/28 11:13:02;;;;;;;1.53;1.00;;;14.70;98.20;;;;;;4983490;28;20537;-78
2022/09/28 11:15:32;;;;;;;1.50;0.90;;;14.70;98.20;;;;;;4989759;28;20464;-78
2022/09/28 11:18:20;;;;;;;1.53;1.00;;;14.50;98.20;;;;;;4978738;28;20481;-78
2022/09/28 11:20:48;;;;;;;1.57;1.00;;;14.50;98.20;;;;;;4984978;28;20501;-78
2022/09/28 11:23:20;;;;;;;1.50;0.90;;;14.50;98.20;;;;;;4984279;28;20556;-78
2022/09/28 11:26:06;;;;;;;1.50;0.93;;;14.60;98.20;;;;;;4986947;28;20744;-79
2022/09/28 11:28:37;;;;;;;1.50;1.00;;;14.80;98.20;;;;;;4987009;28;20547;-79
2022/09/28 11:31:06;;;;;;;1.50;1.00;;;14.90;98.20;;;;;;4975491;28;20480;-79
2022/09/28 11:33:36;;;;;;;1.50;0.90;;;15.00;98.20;;;;;;4981375;28;20894;-78
2022/09/28 11:36:22;;;;;;;1.50;1.00;;;15.10;98.20;;;;;;4969439;28;20528;-79
2022/09/28 11:38:59;;;;;;;1.50;0.90;;;15.20;98.20;;;;;;5003276;28;20479;-78
2022/09/28 11:41:52;;;;;;;1.50;1.00;;;15.30;98.20;;;;;;4973794;28;20481;-78
2022/09/28 11:44:36;;;;;;;1.50;1.00;;;15.30;98.20;;;;;;4983287;28;21005;-79
2022/09/28 11:47:15;;;;;;;1.50;1.00;;;15.50;98.20;;;;;;4976627;28;20485;-79
2022/09/28 11:49:47;;;;;;;1.50;0.90;;;15.60;98.20;;;;;;4988815;28;20905;-78
2022/09/28 11:52:20;;;;;;;1.50;1.00;;;15.80;98.20;;;;;;4977026;28;21045;-78
2022/09/28 11:54:53;;;;;;;1.50;1.00;;;15.80;98.10;;;;;;4987657;28;20845;-79
2022/09/28 11:57:25;;;;;;;1.50;0.90;;;15.80;98.20;;;;;;4976501;28;20488;-78
2022/09/28 11:59:58;;;;;;;1.50;0.90;;;15.60;98.20;;;;;;4983729;28;20548;-78
2022/09/28 12:02:30;;;;;;;1.50;1.00;;;15.40;98.20;;;;;;4978022;28;20516;-79
2022/09/28 12:05:06;;;;;;;1.53;1.00;;;15.30;98.20;;;;;;4990575;28;20559;-79
2022/09/28 12:07:38;;;;;;;1.50;1.00;;;15.20;98.20;;;;;;4986889;28;20485;-78
2022/09/28 12:10:15;;;;;;;1.50;0.90;;;15.20;98.20;;;;;;4990886;28;20557;-79
2022/09/28 12:12:49;;;;;;;1.50;0.90;;;15.40;98.20;;;;;;4963631;28;20496;-78
2022/09/28 12:15:21;;;;;;;1.50;0.90;;;15.60;98.20;;;;;;4988909;28;20934;-79
2022/09/28 12:17:51;;;;;;;1.53;0.93;;;15.60;98.20;;;;;;4974410;28;20560;-78
2022/09/28 12:20:23;;;;;;;1.50;0.90;;;15.60;98.20;;;;;;4983078;28;20496;-79
2022/09/28 12:23:02;;;;;;;1.50;0.90;;;15.60;98.10;;;;;;4977240;28;20485;-79
2022/09/28 12:25:45;;;;;;;1.57;1.00;;;15.50;97.80;;;;;;4989975;28;20500;-79
2022/09/28 12:28:18;;;;;;;1.50;0.90;;;15.50;98.20;;;;;;4977876;28;20568;-79
2022/09/28 12:30:47;;;;;;;1.50;1.00;;;15.40;98.20;;;;;;4987583;28;20484;-79
2022/09/28 12:33:16;;;;;;;1.50;0.90;;;15.40;98.20;;;;;;4960197;28;20544;-79
2022/09/28 12:36:04;;;;;;;1.50;1.00;;;15.40;98.20;;;;;;4987871;28;20475;-79
2022/09/28 12:38:50;;;;;;;1.50;0.90;;;15.60;98.20;;;;;;4969950;28;20491;-78
2022/09/28 12:41:30;;;;;;;1.50;0.90;;;15.80;98.20;;;;;;4981332;28;20817;-78
2022/09/28 12:44:16;;;;;;;1.50;0.90;;;15.90;96.80;;;;;;4990231;28;20516;-77
2022/09/28 12:46:59;;;;;;;1.50;0.90;;;15.90;97.30;;;;;;4976003;28;20974;-77
2022/09/28 12:49:39;;;;;;;1.50;0.93;;;16.00;95.70;;;;;;4986421;28;20949;-77
2022/09/28 12:52:26;;;;;;;1.50;0.90;;;16.10;96.60;;;;;;4974988;28;20492;-77
2022/09/28 12:55:21;;;;;;;1.50;1.00;;;16.10;96.40;;;;;;4982736;28;20508;-78
2022/09/28 12:58:00;;;;;;;1.50;0.90;;;16.20;96.90;;;;;;4974884;28;20565;-78
2022/09/28 13:00:38;;;;;;;1.50;0.90;;;16.50;96.50;;;;;;4992248;28;20479;-78
2022/09/28 13:03:47;;;;;;;1.50;0.90;;;16.70;94.30;;;;;;4977066;28;20606;-78
2022/09/28 13:06:47;;;;;;;1.50;0.90;;;16.60;93.90;;;;;;4897604;29;20495;-78
2022/09/28 13:09:20;;;;;;;1.50;1.00;;;16.20;94.20;;;;;;4973580;28;20993;-78
2022/09/28 13:12:15;;;;;;;1.50;0.90;;;15.80;94.40;;;;;;4973215;28;20485;-79
2022/09/28 13:15:37;;;;;;;1.50;1.00;;;15.50;95.80;;;;;;4968989;28;20903;-78
2022/09/28 13:18:11;;;;;;;1.50;1.00;;;15.30;96.20;;;;;;4977004;28;20480;-78
2022/09/28 13:20:58;;;;;;;1.50;0.97;;;15.40;98.20;;;;;;4989946;28;20491;-79
2022/09/28 13:23:29;;;;;;;1.50;1.00;;;15.50;97.10;;;;;;4961854;28;20520;-79
2022/09/28 13:26:03;;;;;;;1.50;0.97;;;15.60;97.80;;;;;;4979016;28;20969;-78
2022/09/28 13:28:34;;;;;;;1.50;0.90;;;15.70;97.30;;;;;;4989363;28;20659;-78